sensor_id;sensor_type;location;lat;lon;timestamp;P1;durP1;ratioP1;P2;durP2;ratioP2
44228;SDS011;29904;51.058;5.378;2023-05-10T00:00:52;15.53;;;9.13;;
44228;SDS011;29904;51.058;5.378;2023-05-10T00:03:18;15.03;;;9.47;;
44228;SDS011;29904;51.058;5.378;2023-05-10T00:05:44;15.57;;;9.70;;
44228;SDS011;29904;51.058;5.378;2023-05-10T00:08:09;15.45;;;9.63;;
44228;SDS011;29904;51.058;5.378;2023-05-10T00:10:35;16.23;;;10.30;;
44228;SDS011;29904;51.058;5.378;2023-05-10T00:13:02;15.90;;;10.30;;
44228;SDS011;29904;51.058;5.378;2023-05-10T00:15:28;15.52;;;10.23;;
44228;SDS011;29904;51.058;5.378;2023-05-10T00:17:55;15.82;;;10.40;;
44228;SDS011;29904;51.058;5.378;2023-05-10T00:20:21;14.90;;;10.27;;
44228;SDS011;29904;51.058;5.378;2023-05-10T00:22:47;15.27;;;10.30;;
44228;SDS011;29904;51.058;5.378;2023-05-10T00:25:13;17.58;;;10.88;;
44228;SDS011;29904;51.058;5.378;2023-05-10T00:27:39;17.00;;;10.85;;
44228;SDS011;29904;51.058;5.378;2023-05-10T00:30:05;15.10;;;10.60;;
44228;SDS011;29904;51.058;5.378;2023-05-10T00:32:31;16.15;;;10.73;;
44228;SDS011;29904;51.058;5.378;2023-05-10T00:34:57;15.70;;;10.38;;
44228;SDS011;29904;51.058;5.378;2023-05-10T00:37:23;15.00;;;10.43;;
44228;SDS011;29904;51.058;5.378;2023-05-10T00:39:49;17.15;;;10.48;;
44228;SDS011;29904;51.058;5.378;2023-05-10T00:42:14;13.70;;;9.73;;
44228;SDS011;29904;51.058;5.378;2023-05-10T00:44:40;16.83;;;11.20;;
44228;SDS011;29904;51.058;5.378;2023-05-10T00:47:06;13.80;;;9.83;;
44228;SDS011;29904;51.058;5.378;2023-05-10T00:49:33;15.40;;;10.20;;
44228;SDS011;29904;51.058;5.378;2023-05-10T00:52:00;15.43;;;10.85;;
44228;SDS011;29904;51.058;5.378;2023-05-10T00:54:27;15.85;;;10.15;;
44228;SDS011;29904;51.058;5.378;2023-05-10T00:56:52;14.98;;;9.98;;
44228;SDS011;29904;51.058;5.378;2023-05-10T00:59:18;16.45;;;9.88;;
44228;SDS011;29904;51.058;5.378;2023-05-10T01:01:45;15.95;;;10.80;;
44228;SDS011;29904;51.058;5.378;2023-05-10T01:04:14;15.40;;;10.37;;
44228;SDS011;29904;51.058;5.378;2023-05-10T01:06:40;15.38;;;9.80;;
44228;SDS011;29904;51.058;5.378;2023-05-10T01:09:07;13.38;;;9.90;;
44228;SDS011;29904;51.058;5.378;2023-05-10T01:11:34;16.52;;;9.82;;
44228;SDS011;29904;51.058;5.378;2023-05-10T01:14:01;15.10;;;10.07;;
44228;SDS011;29904;51.058;5.378;2023-05-10T01:16:28;14.10;;;10.00;;
44228;SDS011;29904;51.058;5.378;2023-05-10T01:18:58;12.80;;;8.93;;
44228;SDS011;29904;51.058;5.378;2023-05-10T01:38:29;14.48;;;8.93;;
44228;SDS011;29904;51.058;5.378;2023-05-10T01:41:09;13.23;;;8.75;;
44228;SDS011;29904;51.058;5.378;2023-05-10T01:44:24;11.88;;;8.00;;
44228;SDS011;29904;51.058;5.378;2023-05-10T01:46:35;13.32;;;7.93;;
44228;SDS011;29904;51.058;5.378;2023-05-10T01:49:02;13.48;;;8.00;;
44228;SDS011;29904;51.058;5.378;2023-05-10T01:51:36;13.05;;;7.65;;
44228;SDS011;29904;51.058;5.378;2023-05-10T01:54:09;12.97;;;7.60;;
44228;SDS011;29904;51.058;5.378;2023-05-10T01:56:38;12.82;;;7.70;;
44228;SDS011;29904;51.058;5.378;2023-05-10T01:59:07;10.45;;;7.10;;
44228;SDS011;29904;51.058;5.378;2023-05-10T02:01:37;12.98;;;7.97;;
44228;SDS011;29904;51.058;5.378;2023-05-10T02:04:04;14.10;;;7.97;;
44228;SDS011;29904;51.058;5.378;2023-05-10T02:06:32;12.23;;;7.88;;
44228;SDS011;29904;51.058;5.378;2023-05-10T02:09:00;14.85;;;7.82;;
44228;SDS011;29904;51.058;5.378;2023-05-10T02:11:27;13.77;;;7.82;;
44228;SDS011;29904;51.058;5.378;2023-05-10T02:13:54;11.70;;;7.50;;
44228;SDS011;29904;51.058;5.378;2023-05-10T02:16:22;13.80;;;8.05;;
44228;SDS011;29904;51.058;5.378;2023-05-10T02:18:51;15.05;;;8.23;;
44228;SDS011;29904;51.058;5.378;2023-05-10T02:21:18;11.95;;;7.38;;
44228;SDS011;29904;51.058;5.378;2023-05-10T02:23:45;14.30;;;8.20;;
44228;SDS011;29904;51.058;5.378;2023-05-10T02:26:13;14.55;;;8.40;;
44228;SDS011;29904;51.058;5.378;2023-05-10T02:28:41;13.88;;;8.18;;
44228;SDS011;29904;51.058;5.378;2023-05-10T02:31:08;10.30;;;7.97;;
44228;SDS011;29904;51.058;5.378;2023-05-10T02:33:36;16.25;;;8.80;;
44228;SDS011;29904;51.058;5.378;2023-05-10T02:36:04;14.25;;;8.30;;
44228;SDS011;29904;51.058;5.378;2023-05-10T02:38:32;16.25;;;8.85;;
44228;SDS011;29904;51.058;5.378;2023-05-10T02:40:59;13.35;;;8.23;;
44228;SDS011;29904;51.058;5.378;2023-05-10T02:43:26;14.33;;;8.17;;
44228;SDS011;29904;51.058;5.378;2023-05-10T02:45:55;16.27;;;8.98;;
44228;SDS011;29904;51.058;5.378;2023-05-10T02:48:20;17.50;;;9.70;;
44228;SDS011;29904;51.058;5.378;2023-05-10T02:50:46;17.75;;;9.27;;
44228;SDS011;29904;51.058;5.378;2023-05-10T02:53:18;20.00;;;9.90;;
44228;SDS011;29904;51.058;5.378;2023-05-10T02:55:49;21.60;;;11.45;;
44228;SDS011;29904;51.058;5.378;2023-05-10T02:58:17;18.85;;;10.00;;
44228;SDS011;29904;51.058;5.378;2023-05-10T03:00:46;22.08;;;10.73;;
44228;SDS011;29904;51.058;5.378;2023-05-10T03:03:12;17.98;;;9.85;;
44228;SDS011;29904;51.058;5.378;2023-05-10T03:05:37;18.83;;;10.10;;
44228;SDS011;29904;51.058;5.378;2023-05-10T03:08:03;20.60;;;10.33;;
44228;SDS011;29904;51.058;5.378;2023-05-10T03:10:31;20.75;;;10.30;;
44228;SDS011;29904;51.058;5.378;2023-05-10T03:13:05;18.63;;;10.20;;
44228;SDS011;29904;51.058;5.378;2023-05-10T03:15:36;20.52;;;11.07;;
44228;SDS011;29904;51.058;5.378;2023-05-10T03:18:21;17.90;;;9.77;;
44228;SDS011;29904;51.058;5.378;2023-05-10T03:20:56;18.30;;;9.73;;
44228;SDS011;29904;51.058;5.378;2023-05-10T03:23:34;17.33;;;9.57;;
44228;SDS011;29904;51.058;5.378;2023-05-10T03:26:08;16.75;;;9.13;;
44228;SDS011;29904;51.058;5.378;2023-05-10T03:28:34;15.70;;;8.95;;
44228;SDS011;29904;51.058;5.378;2023-05-10T03:31:02;17.83;;;9.55;;
44228;SDS011;29904;51.058;5.378;2023-05-10T03:33:29;17.05;;;8.73;;
44228;SDS011;29904;51.058;5.378;2023-05-10T03:35:55;15.35;;;8.57;;
44228;SDS011;29904;51.058;5.378;2023-05-10T03:38:21;16.30;;;8.90;;
44228;SDS011;29904;51.058;5.378;2023-05-10T03:40:47;20.07;;;9.67;;
44228;SDS011;29904;51.058;5.378;2023-05-10T03:43:12;14.70;;;8.67;;
44228;SDS011;29904;51.058;5.378;2023-05-10T03:45:38;16.13;;;8.75;;
44228;SDS011;29904;51.058;5.378;2023-05-10T03:48:04;18.17;;;8.80;;
44228;SDS011;29904;51.058;5.378;2023-05-10T03:50:30;14.15;;;8.63;;
44228;SDS011;29904;51.058;5.378;2023-05-10T03:52:55;15.53;;;8.60;;
44228;SDS011;29904;51.058;5.378;2023-05-10T03:55:22;17.95;;;8.90;;
44228;SDS011;29904;51.058;5.378;2023-05-10T03:57:48;15.82;;;9.20;;
44228;SDS011;29904;51.058;5.378;2023-05-10T04:00:14;13.50;;;8.70;;
44228;SDS011;29904;51.058;5.378;2023-05-10T04:02:41;18.95;;;9.52;;
44228;SDS011;29904;51.058;5.378;2023-05-10T04:05:06;15.35;;;8.85;;
44228;SDS011;29904;51.058;5.378;2023-05-10T04:07:32;13.38;;;8.23;;
44228;SDS011;29904;51.058;5.378;2023-05-10T04:09:58;16.42;;;9.15;;
44228;SDS011;29904;51.058;5.378;2023-05-10T04:12:24;14.93;;;8.80;;
44228;SDS011;29904;51.058;5.378;2023-05-10T04:14:50;17.73;;;9.50;;
44228;SDS011;29904;51.058;5.378;2023-05-10T04:17:16;16.77;;;9.13;;
44228;SDS011;29904;51.058;5.378;2023-05-10T04:19:41;18.73;;;9.48;;
44228;SDS011;29904;51.058;5.378;2023-05-10T04:22:07;15.73;;;9.73;;
44228;SDS011;29904;51.058;5.378;2023-05-10T04:24:33;17.75;;;9.85;;
44228;SDS011;29904;51.058;5.378;2023-05-10T04:26:59;15.65;;;9.13;;
44228;SDS011;29904;51.058;5.378;2023-05-10T04:29:25;17.45;;;9.55;;
44228;SDS011;29904;51.058;5.378;2023-05-10T04:31:52;15.25;;;9.38;;
44228;SDS011;29904;51.058;5.378;2023-05-10T04:34:19;15.95;;;9.73;;
44228;SDS011;29904;51.058;5.378;2023-05-10T04:36:45;16.35;;;9.55;;
44228;SDS011;29904;51.058;5.378;2023-05-10T04:39:11;15.57;;;9.20;;
44228;SDS011;29904;51.058;5.378;2023-05-10T04:41:37;19.53;;;9.63;;
44228;SDS011;29904;51.058;5.378;2023-05-10T04:44:03;16.27;;;9.63;;
44228;SDS011;29904;51.058;5.378;2023-05-10T04:46:29;16.50;;;9.43;;
44228;SDS011;29904;51.058;5.378;2023-05-10T04:48:55;20.83;;;10.77;;
44228;SDS011;29904;51.058;5.378;2023-05-10T04:51:20;18.92;;;10.55;;
44228;SDS011;29904;51.058;5.378;2023-05-10T04:53:46;15.98;;;10.18;;
44228;SDS011;29904;51.058;5.378;2023-05-10T04:56:12;15.07;;;9.63;;
44228;SDS011;29904;51.058;5.378;2023-05-10T04:58:38;15.07;;;10.00;;
44228;SDS011;29904;51.058;5.378;2023-05-10T05:01:06;19.25;;;10.93;;
44228;SDS011;29904;51.058;5.378;2023-05-10T05:03:34;16.58;;;10.20;;
44228;SDS011;29904;51.058;5.378;2023-05-10T05:06:00;20.35;;;10.57;;
44228;SDS011;29904;51.058;5.378;2023-05-10T05:08:26;17.63;;;10.18;;
44228;SDS011;29904;51.058;5.378;2023-05-10T05:10:51;17.23;;;10.90;;
44228;SDS011;29904;51.058;5.378;2023-05-10T05:13:17;16.43;;;10.70;;
44228;SDS011;29904;51.058;5.378;2023-05-10T05:15:43;17.40;;;10.60;;
44228;SDS011;29904;51.058;5.378;2023-05-10T05:18:09;18.23;;;10.83;;
44228;SDS011;29904;51.058;5.378;2023-05-10T05:20:35;17.93;;;10.70;;
44228;SDS011;29904;51.058;5.378;2023-05-10T05:23:01;17.33;;;10.35;;
44228;SDS011;29904;51.058;5.378;2023-05-10T05:25:26;19.50;;;11.25;;
44228;SDS011;29904;51.058;5.378;2023-05-10T05:27:52;19.88;;;11.90;;
44228;SDS011;29904;51.058;5.378;2023-05-10T05:30:18;34.13;;;17.87;;
44228;SDS011;29904;51.058;5.378;2023-05-10T05:32:44;31.97;;;16.97;;
44228;SDS011;29904;51.058;5.378;2023-05-10T05:35:09;37.23;;;18.30;;
44228;SDS011;29904;51.058;5.378;2023-05-10T05:37:36;38.93;;;18.57;;
44228;SDS011;29904;51.058;5.378;2023-05-10T05:40:02;37.72;;;19.38;;
44228;SDS011;29904;51.058;5.378;2023-05-10T05:42:28;41.30;;;19.55;;
44228;SDS011;29904;51.058;5.378;2023-05-10T05:44:55;38.22;;;18.65;;
44228;SDS011;29904;51.058;5.378;2023-05-10T05:47:21;37.90;;;18.63;;
44228;SDS011;29904;51.058;5.378;2023-05-10T05:49:46;42.55;;;19.85;;
44228;SDS011;29904;51.058;5.378;2023-05-10T05:52:12;40.60;;;19.77;;
44228;SDS011;29904;51.058;5.378;2023-05-10T05:54:38;38.33;;;19.50;;
44228;SDS011;29904;51.058;5.378;2023-05-10T05:57:04;39.15;;;19.55;;
44228;SDS011;29904;51.058;5.378;2023-05-10T05:59:30;35.10;;;17.70;;
44228;SDS011;29904;51.058;5.378;2023-05-10T06:01:56;40.20;;;19.33;;
44228;SDS011;29904;51.058;5.378;2023-05-10T06:04:22;39.07;;;19.07;;
44228;SDS011;29904;51.058;5.378;2023-05-10T06:06:47;37.22;;;18.65;;
44228;SDS011;29904;51.058;5.378;2023-05-10T06:09:13;38.42;;;18.35;;
44228;SDS011;29904;51.058;5.378;2023-05-10T06:11:39;39.33;;;17.88;;
44228;SDS011;29904;51.058;5.378;2023-05-10T06:14:05;37.75;;;18.67;;
44228;SDS011;29904;51.058;5.378;2023-05-10T06:16:32;35.65;;;17.85;;
44228;SDS011;29904;51.058;5.378;2023-05-10T06:18:59;35.10;;;17.70;;
44228;SDS011;29904;51.058;5.378;2023-05-10T06:21:24;34.65;;;17.75;;
44228;SDS011;29904;51.058;5.378;2023-05-10T06:23:50;34.50;;;17.23;;
44228;SDS011;29904;51.058;5.378;2023-05-10T06:26:16;34.10;;;16.95;;
44228;SDS011;29904;51.058;5.378;2023-05-10T06:28:42;28.88;;;15.60;;
44228;SDS011;29904;51.058;5.378;2023-05-10T06:31:07;31.75;;;15.77;;
44228;SDS011;29904;51.058;5.378;2023-05-10T06:33:33;34.57;;;16.83;;
44228;SDS011;29904;51.058;5.378;2023-05-10T06:35:59;31.80;;;15.87;;
44228;SDS011;29904;51.058;5.378;2023-05-10T06:38:25;32.23;;;16.33;;
44228;SDS011;29904;51.058;5.378;2023-05-10T06:40:51;33.15;;;16.70;;
44228;SDS011;29904;51.058;5.378;2023-05-10T06:43:16;32.15;;;16.85;;
44228;SDS011;29904;51.058;5.378;2023-05-10T06:45:42;32.53;;;16.63;;
44228;SDS011;29904;51.058;5.378;2023-05-10T06:48:08;32.30;;;16.10;;
44228;SDS011;29904;51.058;5.378;2023-05-10T06:50:34;31.27;;;15.85;;
44228;SDS011;29904;51.058;5.378;2023-05-10T06:53:00;29.70;;;15.05;;
44228;SDS011;29904;51.058;5.378;2023-05-10T06:55:27;29.52;;;14.75;;
44228;SDS011;29904;51.058;5.378;2023-05-10T06:57:53;34.05;;;17.25;;
44228;SDS011;29904;51.058;5.378;2023-05-10T07:00:19;31.27;;;15.50;;
44228;SDS011;29904;51.058;5.378;2023-05-10T07:02:45;31.83;;;16.05;;
44228;SDS011;29904;51.058;5.378;2023-05-10T07:05:12;33.15;;;16.33;;
44228;SDS011;29904;51.058;5.378;2023-05-10T07:07:38;34.50;;;16.70;;
44228;SDS011;29904;51.058;5.378;2023-05-10T07:10:04;35.33;;;16.98;;
44228;SDS011;29904;51.058;5.378;2023-05-10T07:12:30;32.90;;;16.58;;
44228;SDS011;29904;51.058;5.378;2023-05-10T07:14:56;35.00;;;16.42;;
44228;SDS011;29904;51.058;5.378;2023-05-10T07:17:22;34.93;;;16.43;;
44228;SDS011;29904;51.058;5.378;2023-05-10T07:19:47;32.53;;;15.60;;
44228;SDS011;29904;51.058;5.378;2023-05-10T07:22:14;33.45;;;16.40;;
44228;SDS011;29904;51.058;5.378;2023-05-10T07:24:40;31.95;;;16.05;;
44228;SDS011;29904;51.058;5.378;2023-05-10T07:27:06;32.97;;;16.95;;
44228;SDS011;29904;51.058;5.378;2023-05-10T07:29:32;34.78;;;17.17;;
44228;SDS011;29904;51.058;5.378;2023-05-10T07:31:57;34.75;;;16.73;;
44228;SDS011;29904;51.058;5.378;2023-05-10T07:34:23;31.20;;;16.20;;
44228;SDS011;29904;51.058;5.378;2023-05-10T07:36:49;30.13;;;15.53;;
44228;SDS011;29904;51.058;5.378;2023-05-10T07:39:15;30.20;;;15.13;;
44228;SDS011;29904;51.058;5.378;2023-05-10T07:41:41;31.15;;;16.60;;
44228;SDS011;29904;51.058;5.378;2023-05-10T07:44:07;31.43;;;16.00;;
44228;SDS011;29904;51.058;5.378;2023-05-10T07:46:33;29.97;;;15.50;;
44228;SDS011;29904;51.058;5.378;2023-05-10T07:48:59;31.20;;;15.65;;
44228;SDS011;29904;51.058;5.378;2023-05-10T07:51:24;28.67;;;15.70;;
44228;SDS011;29904;51.058;5.378;2023-05-10T07:53:50;30.50;;;16.08;;
44228;SDS011;29904;51.058;5.378;2023-05-10T07:56:20;30.00;;;15.85;;
44228;SDS011;29904;51.058;5.378;2023-05-10T07:58:55;29.63;;;16.05;;
44228;SDS011;29904;51.058;5.378;2023-05-10T08:01:21;31.75;;;16.40;;
44228;SDS011;29904;51.058;5.378;2023-05-10T08:03:47;32.65;;;17.50;;
44228;SDS011;29904;51.058;5.378;2023-05-10T08:06:14;29.88;;;16.52;;
44228;SDS011;29904;51.058;5.378;2023-05-10T08:08:40;31.42;;;17.42;;
44228;SDS011;29904;51.058;5.378;2023-05-10T08:11:07;28.48;;;15.82;;
44228;SDS011;29904;51.058;5.378;2023-05-10T08:13:32;33.43;;;17.73;;
44228;SDS011;29904;51.058;5.378;2023-05-10T08:15:59;31.13;;;16.15;;
44228;SDS011;29904;51.058;5.378;2023-05-10T08:18:25;31.02;;;15.95;;
44228;SDS011;29904;51.058;5.378;2023-05-10T08:20:51;30.67;;;17.05;;
44228;SDS011;29904;51.058;5.378;2023-05-10T08:23:17;31.58;;;16.52;;
44228;SDS011;29904;51.058;5.378;2023-05-10T08:25:42;29.02;;;16.05;;
44228;SDS011;29904;51.058;5.378;2023-05-10T08:28:08;29.63;;;15.60;;
44228;SDS011;29904;51.058;5.378;2023-05-10T08:30:34;29.93;;;15.47;;
44228;SDS011;29904;51.058;5.378;2023-05-10T08:32:59;31.52;;;15.60;;
44228;SDS011;29904;51.058;5.378;2023-05-10T08:35:25;29.27;;;15.23;;
44228;SDS011;29904;51.058;5.378;2023-05-10T08:37:51;30.87;;;15.30;;
44228;SDS011;29904;51.058;5.378;2023-05-10T08:40:16;31.23;;;15.82;;
44228;SDS011;29904;51.058;5.378;2023-05-10T08:42:48;28.25;;;15.10;;
44228;SDS011;29904;51.058;5.378;2023-05-10T08:45:19;27.45;;;15.38;;
44228;SDS011;29904;51.058;5.378;2023-05-10T08:47:49;28.38;;;15.77;;
44228;SDS011;29904;51.058;5.378;2023-05-10T08:50:17;26.38;;;15.15;;
44228;SDS011;29904;51.058;5.378;2023-05-10T08:52:45;29.60;;;15.73;;
44228;SDS011;29904;51.058;5.378;2023-05-10T08:55:13;26.25;;;14.95;;
44228;SDS011;29904;51.058;5.378;2023-05-10T08:57:40;25.77;;;14.30;;
44228;SDS011;29904;51.058;5.378;2023-05-10T09:00:06;29.17;;;15.57;;
44228;SDS011;29904;51.058;5.378;2023-05-10T09:02:33;27.52;;;15.43;;
44228;SDS011;29904;51.058;5.378;2023-05-10T09:05:00;27.55;;;14.75;;
44228;SDS011;29904;51.058;5.378;2023-05-10T09:07:26;29.95;;;15.45;;
44228;SDS011;29904;51.058;5.378;2023-05-10T09:09:54;28.42;;;14.93;;
44228;SDS011;29904;51.058;5.378;2023-05-10T09:12:20;27.42;;;15.27;;
44228;SDS011;29904;51.058;5.378;2023-05-10T09:14:46;27.80;;;15.52;;
44228;SDS011;29904;51.058;5.378;2023-05-10T09:17:12;28.35;;;15.88;;
44228;SDS011;29904;51.058;5.378;2023-05-10T09:19:38;29.48;;;16.40;;
44228;SDS011;29904;51.058;5.378;2023-05-10T09:22:04;20.73;;;12.07;;
44228;SDS011;29904;51.058;5.378;2023-05-10T09:24:30;18.08;;;10.27;;
44228;SDS011;29904;51.058;5.378;2023-05-10T09:26:56;11.82;;;7.93;;
44228;SDS011;29904;51.058;5.378;2023-05-10T09:29:23;11.50;;;6.97;;
44228;SDS011;29904;51.058;5.378;2023-05-10T09:31:49;11.13;;;6.32;;
44228;SDS011;29904;51.058;5.378;2023-05-10T09:34:17;8.35;;;5.70;;
44228;SDS011;29904;51.058;5.378;2023-05-10T09:36:51;10.60;;;5.50;;
44228;SDS011;29904;51.058;5.378;2023-05-10T09:39:17;9.18;;;5.50;;
44228;SDS011;29904;51.058;5.378;2023-05-10T09:41:43;8.33;;;5.40;;
44228;SDS011;29904;51.058;5.378;2023-05-10T09:44:09;7.28;;;5.03;;
44228;SDS011;29904;51.058;5.378;2023-05-10T09:46:35;8.25;;;5.28;;
44228;SDS011;29904;51.058;5.378;2023-05-10T09:49:01;7.22;;;5.00;;
44228;SDS011;29904;51.058;5.378;2023-05-10T09:51:27;7.53;;;5.30;;
44228;SDS011;29904;51.058;5.378;2023-05-10T09:54:12;9.30;;;5.50;;
44228;SDS011;29904;51.058;5.378;2023-05-10T09:56:40;6.88;;;5.25;;
44228;SDS011;29904;51.058;5.378;2023-05-10T09:59:07;9.23;;;6.23;;
44228;SDS011;29904;51.058;5.378;2023-05-10T10:01:35;8.32;;;5.63;;
44228;SDS011;29904;51.058;5.378;2023-05-10T10:04:02;9.88;;;6.05;;
44228;SDS011;29904;51.058;5.378;2023-05-10T10:06:40;9.27;;;5.70;;
44228;SDS011;29904;51.058;5.378;2023-05-10T10:09:06;8.75;;;5.80;;
44228;SDS011;29904;51.058;5.378;2023-05-10T10:11:36;9.70;;;6.30;;
44228;SDS011;29904;51.058;5.378;2023-05-10T10:14:02;9.73;;;6.07;;
44228;SDS011;29904;51.058;5.378;2023-05-10T10:16:29;11.73;;;6.95;;
44228;SDS011;29904;51.058;5.378;2023-05-10T10:18:55;9.77;;;6.47;;
44228;SDS011;29904;51.058;5.378;2023-05-10T10:21:22;10.52;;;6.85;;
44228;SDS011;29904;51.058;5.378;2023-05-10T10:23:48;9.40;;;5.90;;
44228;SDS011;29904;51.058;5.378;2023-05-10T10:26:15;10.07;;;6.40;;
44228;SDS011;29904;51.058;5.378;2023-05-10T10:28:51;10.02;;;6.40;;
44228;SDS011;29904;51.058;5.378;2023-05-10T10:31:33;10.35;;;6.57;;
44228;SDS011;29904;51.058;5.378;2023-05-10T10:34:08;10.50;;;6.63;;
44228;SDS011;29904;51.058;5.378;2023-05-10T10:36:47;10.90;;;7.18;;
44228;SDS011;29904;51.058;5.378;2023-05-10T10:39:13;11.30;;;6.80;;
44228;SDS011;29904;51.058;5.378;2023-05-10T10:41:48;10.43;;;7.18;;
44228;SDS011;29904;51.058;5.378;2023-05-10T10:47:00;10.00;;;7.03;;
44228;SDS011;29904;51.058;5.378;2023-05-10T10:49:27;11.48;;;7.25;;
44228;SDS011;29904;51.058;5.378;2023-05-10T10:54:38;9.93;;;7.00;;
44228;SDS011;29904;51.058;5.378;2023-05-10T10:57:11;11.67;;;7.47;;
44228;SDS011;29904;51.058;5.378;2023-05-10T10:59:47;10.70;;;6.93;;
44228;SDS011;29904;51.058;5.378;2023-05-10T11:02:32;11.07;;;7.40;;
44228;SDS011;29904;51.058;5.378;2023-05-10T11:05:00;11.23;;;7.43;;
44228;SDS011;29904;51.058;5.378;2023-05-10T11:07:55;12.53;;;8.00;;
44228;SDS011;29904;51.058;5.378;2023-05-10T11:10:22;11.23;;;7.97;;
44228;SDS011;29904;51.058;5.378;2023-05-10T11:12:52;12.50;;;7.57;;
44228;SDS011;29904;51.058;5.378;2023-05-10T11:15:38;10.50;;;7.32;;
44228;SDS011;29904;51.058;5.378;2023-05-10T11:20:51;11.43;;;7.55;;
44228;SDS011;29904;51.058;5.378;2023-05-10T11:23:17;11.20;;;7.55;;
44228;SDS011;29904;51.058;5.378;2023-05-10T11:25:44;10.07;;;7.57;;
44228;SDS011;29904;51.058;5.378;2023-05-10T11:28:11;10.83;;;7.50;;
44228;SDS011;29904;51.058;5.378;2023-05-10T11:30:38;10.85;;;7.28;;
44228;SDS011;29904;51.058;5.378;2023-05-10T11:33:05;12.60;;;7.90;;
44228;SDS011;29904;51.058;5.378;2023-05-10T11:35:36;11.50;;;7.80;;
44228;SDS011;29904;51.058;5.378;2023-05-10T11:38:14;12.05;;;7.93;;
44228;SDS011;29904;51.058;5.378;2023-05-10T11:40:40;11.48;;;7.38;;
44228;SDS011;29904;51.058;5.378;2023-05-10T11:43:08;8.80;;;6.53;;
44228;SDS011;29904;51.058;5.378;2023-05-10T11:45:35;10.38;;;6.80;;
44228;SDS011;29904;51.058;5.378;2023-05-10T11:48:02;10.50;;;6.97;;
44228;SDS011;29904;51.058;5.378;2023-05-10T11:50:28;9.35;;;6.60;;
44228;SDS011;29904;51.058;5.378;2023-05-10T11:52:57;8.38;;;5.65;;
44228;SDS011;29904;51.058;5.378;2023-05-10T11:55:23;9.98;;;6.32;;
44228;SDS011;29904;51.058;5.378;2023-05-10T11:57:53;9.80;;;5.50;;
44228;SDS011;29904;51.058;5.378;2023-05-10T12:00:19;9.13;;;5.50;;
44228;SDS011;29904;51.058;5.378;2023-05-10T12:02:46;9.20;;;5.63;;
44228;SDS011;29904;51.058;5.378;2023-05-10T12:05:12;7.57;;;5.55;;
44228;SDS011;29904;51.058;5.378;2023-05-10T12:07:38;8.35;;;5.22;;
44228;SDS011;29904;51.058;5.378;2023-05-10T12:10:10;6.90;;;4.97;;
44228;SDS011;29904;51.058;5.378;2023-05-10T12:12:42;8.27;;;5.20;;
44228;SDS011;29904;51.058;5.378;2023-05-10T12:15:31;7.67;;;5.03;;
44228;SDS011;29904;51.058;5.378;2023-05-10T12:17:56;6.78;;;4.10;;
44228;SDS011;29904;51.058;5.378;2023-05-10T12:20:22;7.18;;;4.47;;
44228;SDS011;29904;51.058;5.378;2023-05-10T12:22:50;6.25;;;4.40;;
44228;SDS011;29904;51.058;5.378;2023-05-10T12:25:17;6.18;;;3.95;;
44228;SDS011;29904;51.058;5.378;2023-05-10T12:27:52;5.60;;;3.90;;
44228;SDS011;29904;51.058;5.378;2023-05-10T12:30:22;4.50;;;3.53;;
44228;SDS011;29904;51.058;5.378;2023-05-10T12:32:49;5.28;;;3.60;;
44228;SDS011;29904;51.058;5.378;2023-05-10T12:35:15;5.03;;;3.55;;
44228;SDS011;29904;51.058;5.378;2023-05-10T12:37:42;5.10;;;3.30;;
44228;SDS011;29904;51.058;5.378;2023-05-10T12:40:09;5.25;;;3.30;;
44228;SDS011;29904;51.058;5.378;2023-05-10T12:42:36;5.95;;;3.55;;
44228;SDS011;29904;51.058;5.378;2023-05-10T12:45:02;5.68;;;3.17;;
44228;SDS011;29904;51.058;5.378;2023-05-10T12:47:30;4.47;;;3.15;;
44228;SDS011;29904;51.058;5.378;2023-05-10T12:49:59;4.30;;;2.78;;
44228;SDS011;29904;51.058;5.378;2023-05-10T12:52:26;5.40;;;2.78;;
44228;SDS011;29904;51.058;5.378;2023-05-10T12:54:52;4.18;;;2.88;;
44228;SDS011;29904;51.058;5.378;2023-05-10T12:57:19;5.38;;;3.00;;
44228;SDS011;29904;51.058;5.378;2023-05-10T12:59:46;5.43;;;3.10;;
44228;SDS011;29904;51.058;5.378;2023-05-10T13:02:11;4.53;;;3.00;;
44228;SDS011;29904;51.058;5.378;2023-05-10T13:04:38;4.55;;;2.60;;
44228;SDS011;29904;51.058;5.378;2023-05-10T13:07:07;6.72;;;3.10;;
44228;SDS011;29904;51.058;5.378;2023-05-10T13:09:33;3.73;;;2.93;;
44228;SDS011;29904;51.058;5.378;2023-05-10T13:11:59;4.70;;;2.77;;
44228;SDS011;29904;51.058;5.378;2023-05-10T13:14:25;4.05;;;2.85;;
44228;SDS011;29904;51.058;5.378;2023-05-10T13:16:50;5.20;;;2.78;;
44228;SDS011;29904;51.058;5.378;2023-05-10T13:19:16;4.00;;;2.90;;
44228;SDS011;29904;51.058;5.378;2023-05-10T13:21:42;4.57;;;2.90;;
44228;SDS011;29904;51.058;5.378;2023-05-10T13:24:12;3.95;;;2.50;;
44228;SDS011;29904;51.058;5.378;2023-05-10T13:26:42;3.92;;;2.47;;
44228;SDS011;29904;51.058;5.378;2023-05-10T13:29:08;3.47;;;2.33;;
44228;SDS011;29904;51.058;5.378;2023-05-10T13:31:34;3.40;;;2.28;;
44228;SDS011;29904;51.058;5.378;2023-05-10T13:34:00;3.60;;;2.28;;
44228;SDS011;29904;51.058;5.378;2023-05-10T13:36:26;4.00;;;2.40;;
44228;SDS011;29904;51.058;5.378;2023-05-10T13:38:51;4.37;;;2.50;;
44228;SDS011;29904;51.058;5.378;2023-05-10T13:41:17;3.40;;;2.30;;
44228;SDS011;29904;51.058;5.378;2023-05-10T13:43:43;3.55;;;2.30;;
44228;SDS011;29904;51.058;5.378;2023-05-10T13:46:09;4.63;;;2.47;;
44228;SDS011;29904;51.058;5.378;2023-05-10T13:48:35;3.15;;;2.03;;
44228;SDS011;29904;51.058;5.378;2023-05-10T13:51:02;3.85;;;2.00;;
44228;SDS011;29904;51.058;5.378;2023-05-10T13:53:28;4.28;;;2.08;;
44228;SDS011;29904;51.058;5.378;2023-05-10T13:55:54;3.53;;;1.80;;
44228;SDS011;29904;51.058;5.378;2023-05-10T13:58:20;3.42;;;1.95;;
44228;SDS011;29904;51.058;5.378;2023-05-10T14:00:45;2.70;;;1.70;;
44228;SDS011;29904;51.058;5.378;2023-05-10T14:03:11;2.83;;;2.00;;
44228;SDS011;29904;51.058;5.378;2023-05-10T14:05:37;3.10;;;1.70;;
44228;SDS011;29904;51.058;5.378;2023-05-10T14:08:03;3.10;;;2.10;;
44228;SDS011;29904;51.058;5.378;2023-05-10T14:10:29;3.33;;;1.90;;
44228;SDS011;29904;51.058;5.378;2023-05-10T14:12:55;2.57;;;1.47;;
44228;SDS011;29904;51.058;5.378;2023-05-10T14:15:21;2.50;;;1.50;;
44228;SDS011;29904;51.058;5.378;2023-05-10T14:17:46;2.38;;;1.30;;
44228;SDS011;29904;51.058;5.378;2023-05-10T14:20:12;3.10;;;1.50;;
44228;SDS011;29904;51.058;5.378;2023-05-10T14:22:38;1.93;;;1.43;;
44228;SDS011;29904;51.058;5.378;2023-05-10T14:25:05;2.70;;;1.48;;
44228;SDS011;29904;51.058;5.378;2023-05-10T14:27:31;1.83;;;1.30;;
44228;SDS011;29904;51.058;5.378;2023-05-10T14:29:57;5.00;;;3.85;;
44228;SDS011;29904;51.058;5.378;2023-05-10T14:32:23;2.35;;;1.90;;
44228;SDS011;29904;51.058;5.378;2023-05-10T14:34:49;1.67;;;1.23;;
44228;SDS011;29904;51.058;5.378;2023-05-10T14:37:16;1.70;;;1.20;;
44228;SDS011;29904;51.058;5.378;2023-05-10T14:39:41;2.30;;;1.27;;
44228;SDS011;29904;51.058;5.378;2023-05-10T14:42:07;1.95;;;1.20;;
44228;SDS011;29904;51.058;5.378;2023-05-10T14:44:33;2.13;;;1.40;;
44228;SDS011;29904;51.058;5.378;2023-05-10T14:46:59;2.10;;;1.30;;
44228;SDS011;29904;51.058;5.378;2023-05-10T14:49:25;2.38;;;1.50;;
44228;SDS011;29904;51.058;5.378;2023-05-10T14:51:51;1.97;;;1.27;;
44228;SDS011;29904;51.058;5.378;2023-05-10T14:54:17;2.00;;;1.10;;
44228;SDS011;29904;51.058;5.378;2023-05-10T14:56:43;1.70;;;1.20;;
44228;SDS011;29904;51.058;5.378;2023-05-10T14:59:09;1.70;;;1.20;;